createdAt,value
2023-10-19T00:00:57.085Z,94862.56
2023-10-19T00:03:25.227Z,94867.50
2023-10-19T00:05:51.957Z,94861.06
2023-10-19T00:08:21.972Z,94863.34
2023-10-19T00:11:04.285Z,94861.50
2023-10-19T00:13:31.466Z,94865.69
2023-10-19T00:15:59.159Z,94862.31
2023-10-19T00:18:25.811Z,94867.97
2023-10-19T00:20:55.441Z,94870.97
2023-10-19T00:23:30.262Z,94855.16
2023-10-19T00:25:58.596Z,94836.69
2023-10-19T00:28:27.890Z,94842.69
2023-10-19T00:31:00.699Z,94837.41
2023-10-19T00:33:29.819Z,94837.41
2023-10-19T00:36:01.749Z,94832.13
2023-10-19T00:38:28.979Z,94841.84
2023-10-19T00:41:00.879Z,94834.75
2023-10-19T00:43:38.757Z,94829.81
2023-10-19T00:46:23.406Z,94830.97
2023-10-19T00:48:52.233Z,94830.97
2023-10-19T00:51:27.907Z,94814.75
2023-10-19T00:53:56.437Z,94825.66
2023-10-19T00:56:25.257Z,94821.50
2023-10-19T00:58:56.345Z,94819.56
2023-10-19T01:01:29.580Z,94824.78
2023-10-19T01:04:00.001Z,94822.88
2023-10-19T01:06:26.932Z,94814.97
2023-10-19T01:08:54.179Z,94802.19
2023-10-19T01:11:22.022Z,94802.63
2023-10-19T01:13:49.298Z,94805.22
2023-10-19T01:16:22.386Z,94803.34
2023-10-19T01:18:54.407Z,94796.22
2023-10-19T01:21:26.277Z,94797.69
2023-10-19T01:23:53.982Z,94786.41
2023-10-19T01:26:26.950Z,94771.72
2023-10-19T01:29:02.754Z,94768.34
2023-10-19T01:31:29.593Z,94772.84
2023-10-19T01:34:06.977Z,94766.09
2023-10-19T01:36:43.762Z,94761.56
2023-10-19T01:39:11.679Z,94762.66
2023-10-19T01:41:39.252Z,94773.53
2023-10-19T01:44:06.376Z,94789.28
2023-10-19T01:46:35.662Z,94784.31
2023-10-19T01:49:04.898Z,94803.84
2023-10-19T01:51:33.993Z,94803.06
2023-10-19T01:54:02.033Z,94801.19
2023-10-19T01:56:29.438Z,94805.56
2023-10-19T01:58:56.207Z,94805.91
2023-10-19T02:01:28.713Z,94794.66
2023-10-19T02:04:01.754Z,94793.09
2023-10-19T02:06:41.435Z,94786.31
2023-10-19T02:09:22.646Z,94780.25
2023-10-19T02:11:51.005Z,94766.72
2023-10-19T02:14:21.591Z,94760.34
2023-10-19T02:16:54.299Z,94738.84
2023-10-19T02:19:22.731Z,94743.06
2023-10-19T02:21:53.206Z,94753.94
2023-10-19T02:24:20.392Z,94740.72
2023-10-19T02:26:52.579Z,94735.84
2023-10-19T02:29:19.852Z,94713.69
2023-10-19T02:31:48.927Z,94727.59
2023-10-19T02:34:18.552Z,94698.94
2023-10-19T02:36:46.544Z,94721.22
2023-10-19T02:39:15.410Z,94723.47
2023-10-19T02:41:45.323Z,94717.88
2023-10-19T02:44:19.333Z,94696.81
2023-10-19T02:46:47.630Z,94720.19
2023-10-19T02:49:16.433Z,94714.22
2023-10-19T02:51:47.289Z,94714.53
2023-10-19T02:54:31.429Z,94720.56
2023-10-19T02:56:59.693Z,94714.56
2023-10-19T02:59:29.531Z,94714.59
2023-10-19T03:02:10.048Z,94726.94
2023-10-19T03:04:37.213Z,94716.81
2023-10-19T03:07:05.259Z,94718.69
2023-10-19T03:09:33.450Z,94711.59
2023-10-19T03:12:20.224Z,94690.84
2023-10-19T03:14:49.241Z,94701.47
2023-10-19T03:17:17.122Z,94704.47
2023-10-19T03:19:43.912Z,94689.84
2023-10-19T03:22:11.362Z,94676.69
2023-10-19T03:24:39.150Z,94691.75
2023-10-19T03:27:18.484Z,94690.56
2023-10-19T03:29:48.794Z,94693.28
2023-10-19T03:32:20.489Z,94689.16
2023-10-19T03:34:51.596Z,94691.06
2023-10-19T03:37:20.975Z,94691.13
2023-10-19T03:39:48.113Z,94690.75
2023-10-19T03:42:15.270Z,94692.63
2023-10-19T03:44:51.312Z,94698.28
2023-10-19T03:47:22.030Z,94686.94
2023-10-19T03:49:50.053Z,94685.75
2023-10-19T03:52:16.622Z,94708.00
2023-10-19T03:54:43.344Z,94716.25
2023-10-19T03:57:24.304Z,94701.25
2023-10-19T03:59:53.740Z,94710.66
2023-10-19T04:02:36.359Z,94715.91
2023-10-19T04:05:04.829Z,94711.78
2023-10-19T04:07:34.524Z,94700.50
2023-10-19T04:10:10.563Z,94709.56
2023-10-19T04:12:43.078Z,94702.03
2023-10-19T04:15:18.776Z,94692.28
2023-10-19T04:17:47.039Z,94697.19
2023-10-19T04:20:18.929Z,94689.69
2023-10-19T04:22:46.177Z,94690.81
2023-10-19T04:25:17.424Z,94682.59
2023-10-19T04:27:44.734Z,94672.78
2023-10-19T04:30:19.132Z,94663.78
2023-10-19T04:32:50.144Z,94656.66
2023-10-19T04:35:23.113Z,94655.97
2023-10-19T04:37:54.708Z,94659.72
2023-10-19T04:40:22.442Z,94666.47
2023-10-19T04:42:50.302Z,94663.47
2023-10-19T04:45:16.929Z,94651.06
2023-10-19T04:47:43.522Z,94654.03
2023-10-19T04:50:13.520Z,94648.81
2023-10-19T04:52:40.663Z,94657.84
2023-10-19T04:55:07.576Z,94651.13
2023-10-19T04:57:34.163Z,94646.63
2023-10-19T05:00:01.218Z,94646.63
2023-10-19T05:02:27.826Z,94659.06
2023-10-19T05:04:54.912Z,94653.41
2023-10-19T05:07:21.656Z,94658.31
2023-10-19T05:09:48.615Z,94645.16
2023-10-19T05:12:15.993Z,94642.91
2023-10-19T05:14:43.591Z,94638.03
2023-10-19T05:17:11.497Z,94641.78
2023-10-19T05:19:39.822Z,94641.78
2023-10-19T05:22:08.523Z,94639.56
2023-10-19T05:24:35.769Z,94630.50
2023-10-19T05:27:02.812Z,94635.03
2023-10-19T05:29:29.304Z,94626.38
2023-10-19T05:31:56.029Z,94626.75
2023-10-19T05:34:23.100Z,94632.78
2023-10-19T05:36:53.181Z,94622.25
2023-10-19T05:39:20.334Z,94633.94
2023-10-19T05:41:46.873Z,94632.81
2023-10-19T05:44:13.494Z,94635.03
2023-10-19T05:46:42.292Z,94640.69
2023-10-19T05:49:09.218Z,94644.47
2023-10-19T05:51:35.787Z,94646.72
2023-10-19T05:54:05.023Z,94644.47
2023-10-19T05:56:32.315Z,94658.78
2023-10-19T05:58:59.339Z,94663.25
2023-10-19T06:01:26.174Z,94668.94
2023-10-19T06:03:53.323Z,94671.19
2023-10-19T06:06:21.107Z,94659.94
2023-10-19T06:08:47.938Z,94658.81
2023-10-19T06:11:14.717Z,94655.09
2023-10-19T06:13:41.325Z,94664.47
2023-10-19T06:16:07.930Z,94664.88
2023-10-19T06:18:34.590Z,94640.03
2023-10-19T06:21:01.152Z,94654.69
2023-10-19T06:23:27.733Z,94652.81
2023-10-19T06:25:54.301Z,94647.16
2023-10-19T06:28:20.902Z,94661.47
2023-10-19T06:30:49.370Z,94663.75
2023-10-19T06:33:16.245Z,94660.75
2023-10-19T06:35:42.932Z,94649.09
2023-10-19T06:38:10.816Z,94629.16
2023-10-19T06:40:37.761Z,94650.59
2023-10-19T06:43:05.442Z,94644.97
2023-10-19T06:45:32.410Z,94649.09
2023-10-19T06:48:01.274Z,94653.63
2023-10-19T06:50:27.923Z,94646.81
2023-10-19T06:52:55.910Z,94659.63
2023-10-19T06:55:23.880Z,94666.34
2023-10-19T06:57:55.221Z,94668.22
2023-10-19T07:00:24.058Z,94671.22
2023-10-19T07:02:56.118Z,94671.56
2023-10-19T07:05:25.303Z,94670.09
2023-10-19T07:07:53.462Z,94646.00
2023-10-19T07:10:20.529Z,94648.22
2023-10-19T07:12:49.677Z,94657.97
2023-10-19T07:15:16.454Z,94662.09
2023-10-19T07:17:43.813Z,94662.09
2023-10-19T07:20:33.106Z,94660.53
2023-10-19T07:23:04.876Z,94655.94
2023-10-19T07:25:32.549Z,94664.97
2023-10-19T07:28:01.203Z,94663.53
2023-10-19T07:30:28.143Z,94663.53
2023-10-19T07:33:00.858Z,94662.44
2023-10-19T07:35:28.390Z,94666.22
2023-10-19T07:37:57.948Z,94658.34
2023-10-19T07:40:25.507Z,94658.31
2023-10-19T07:42:54.383Z,94648.09
2023-10-19T07:45:20.995Z,94652.53
2023-10-19T07:47:47.863Z,94661.97
2023-10-19T07:50:18.158Z,94661.63
2023-10-19T07:52:50.384Z,94654.56
2023-10-19T07:55:18.317Z,94657.16
2023-10-19T07:57:45.703Z,94649.25
2023-10-19T08:00:16.322Z,94642.75
2023-10-19T08:02:43.492Z,94645.75
2023-10-19T08:05:12.765Z,94655.09
2023-10-19T08:07:40.992Z,94654.19
2023-10-19T08:10:10.760Z,94657.84
2023-10-19T08:12:38.857Z,94645.22
2023-10-19T08:15:07.827Z,94650.19
2023-10-19T08:17:35.190Z,94639.03
2023-10-19T08:20:04.507Z,94633.00
2023-10-19T08:22:31.952Z,94654.91
2023-10-19T08:24:58.483Z,94656.13
2023-10-19T08:27:25.182Z,94647.00
2023-10-19T08:29:51.703Z,94653.16
2023-10-19T08:32:18.218Z,94652.75
2023-10-19T08:34:44.824Z,94654.03
2023-10-19T08:37:11.970Z,94653.03
2023-10-19T08:39:38.555Z,94650.81
2023-10-19T08:42:06.023Z,94646.50
2023-10-19T08:44:33.596Z,94651.72
2023-10-19T08:47:00.454Z,94643.34
2023-10-19T08:49:30.224Z,94650.59
2023-10-19T08:52:00.038Z,94650.25
2023-10-19T08:54:26.869Z,94636.81
2023-10-19T08:56:53.386Z,94650.84
2023-10-19T08:59:19.868Z,94642.69
2023-10-19T09:01:47.084Z,94640.59
2023-10-19T09:04:17.627Z,94643.22
2023-10-19T09:06:44.510Z,94643.09
2023-10-19T09:09:26.465Z,94637.00
2023-10-19T09:11:56.398Z,94637.13
2023-10-19T09:14:34.891Z,94630.72
2023-10-19T09:17:01.762Z,94625.19
2023-10-19T09:19:38.721Z,94639.00
2023-10-19T09:22:09.321Z,94629.91
2023-10-19T09:24:37.030Z,94610.28
2023-10-19T09:27:06.924Z,94623.34
2023-10-19T09:29:33.477Z,94625.16
2023-10-19T09:32:04.515Z,94628.66
2023-10-19T09:34:35.207Z,94624.38
2023-10-19T09:37:02.564Z,94618.41
2023-10-19T09:39:36.034Z,94613.91
2023-10-19T09:42:17.380Z,94612.38
2023-10-19T09:44:46.712Z,94604.69
2023-10-19T09:47:20.988Z,94616.00
2023-10-19T09:49:51.279Z,94617.47
2023-10-19T09:52:18.980Z,94605.91
2023-10-19T09:55:00.287Z,94596.63
2023-10-19T09:57:35.619Z,94585.78
2023-10-19T10:00:13.007Z,94589.94
2023-10-19T10:02:43.767Z,94586.78
2023-10-19T10:05:44.405Z,94578.91
2023-10-19T10:08:20.304Z,94587.91
2023-10-19T10:10:48.363Z,94566.50
2023-10-19T10:13:32.893Z,94574.66
2023-10-19T10:16:01.580Z,94560.59
2023-10-19T10:18:31.885Z,94575.88
2023-10-19T10:21:09.541Z,94579.88
2023-10-19T10:23:42.259Z,94566.47
2023-10-19T10:26:10.344Z,94570.22
2023-10-19T10:28:37.106Z,94569.44
2023-10-19T10:31:09.506Z,94572.59
2023-10-19T10:33:49.766Z,94563.09
2023-10-19T10:36:20.761Z,94567.00
2023-10-19T10:38:51.787Z,94551.16
2023-10-19T10:41:29.125Z,94557.50
2023-10-19T10:43:57.518Z,94539.16
2023-10-19T10:46:30.035Z,94525.13
2023-10-19T10:48:56.922Z,94534.09
2023-10-19T10:51:25.618Z,94539.16
2023-10-19T10:53:53.974Z,94535.88
2023-10-19T10:56:22.621Z,94527.63
2023-10-19T10:58:49.415Z,94511.75
2023-10-19T11:01:16.762Z,94496.66
2023-10-19T11:03:43.835Z,94494.75
2023-10-19T11:06:12.323Z,94496.19
2023-10-19T11:08:40.024Z,94502.88
2023-10-19T11:11:12.347Z,94505.97
2023-10-19T11:13:41.154Z,94513.59
2023-10-19T11:16:08.630Z,94517.38
2023-10-19T11:18:37.183Z,94510.53
2023-10-19T11:21:13.493Z,94509.66
2023-10-19T11:23:48.278Z,94517.31
2023-10-19T11:26:20.281Z,94510.59
2023-10-19T11:28:52.629Z,94510.94
2023-10-19T11:31:23.579Z,94491.03
2023-10-19T11:33:51.961Z,94485.31
2023-10-19T11:36:20.002Z,94477.91
2023-10-19T11:38:48.303Z,94494.84
2023-10-19T11:41:16.330Z,94490.78
2023-10-19T11:43:47.432Z,94494.50
2023-10-19T11:46:15.877Z,94487.72
2023-10-19T11:48:46.042Z,94486.50
2023-10-19T11:51:12.704Z,94494.59
2023-10-19T11:53:41.144Z,94485.66
2023-10-19T11:56:10.408Z,94490.78
2023-10-19T11:58:45.031Z,94486.31
2023-10-19T12:01:14.645Z,94471.63
2023-10-19T12:03:42.173Z,94465.88
2023-10-19T12:06:09.780Z,94469.97
2023-10-19T12:08:37.020Z,94475.13
2023-10-19T12:11:05.541Z,94456.97
2023-10-19T12:13:32.694Z,94464.13
2023-10-19T12:15:59.687Z,94461.72
2023-10-19T12:18:29.845Z,94470.91
2023-10-19T12:21:00.575Z,94462.09
2023-10-19T12:23:28.017Z,94451.53
2023-10-19T12:25:57.697Z,94442.50
2023-10-19T12:28:26.066Z,94438.94
2023-10-19T12:30:52.959Z,94433.25
2023-10-19T12:33:20.882Z,94430.56
2023-10-19T12:35:52.648Z,94433.66
2023-10-19T12:38:21.412Z,94436.00
2023-10-19T12:40:49.389Z,94416.94
2023-10-19T12:43:16.907Z,94431.00
2023-10-19T12:45:45.211Z,94421.91
2023-10-19T12:48:12.467Z,94420.16
2023-10-19T12:50:40.116Z,94423.66
2023-10-19T12:53:07.782Z,94422.72
2023-10-19T12:55:35.653Z,94421.53
2023-10-19T12:58:08.661Z,94418.56
2023-10-19T13:00:42.125Z,94413.97
2023-10-19T13:03:09.599Z,94401.72
2023-10-19T13:05:41.034Z,94413.88
2023-10-19T13:08:14.795Z,94413.34
2023-10-19T13:10:45.902Z,94408.69
2023-10-19T13:13:14.290Z,94401.25
2023-10-19T13:15:43.046Z,94404.16
2023-10-19T13:18:11.407Z,94398.19
2023-10-19T13:20:39.886Z,94390.84
2023-10-19T13:23:22.714Z,94400.59
2023-10-19T13:25:53.691Z,94396.19
2023-10-19T13:28:21.772Z,94383.53
2023-10-19T13:30:50.420Z,94380.97
2023-10-19T13:33:18.280Z,94362.28
2023-10-19T13:35:46.612Z,94353.84
2023-10-19T13:38:15.112Z,94350.97
2023-10-19T13:40:43.005Z,94330.34
2023-10-19T13:43:14.891Z,94336.63
2023-10-19T13:45:46.444Z,94345.25
2023-10-19T13:48:15.074Z,94348.97
2023-10-19T13:50:49.833Z,94339.75
2023-10-19T13:53:19.623Z,94335.59
2023-10-19T13:55:46.672Z,94328.91
2023-10-19T13:58:14.128Z,94339.34
2023-10-19T14:00:44.677Z,94314.97
2023-10-19T14:03:13.702Z,94319.53
2023-10-19T14:05:44.226Z,94328.94
2023-10-19T14:08:11.086Z,94323.03
2023-10-19T14:10:37.788Z,94323.03
2023-10-19T14:13:06.525Z,94340.19
2023-10-19T14:15:35.306Z,94340.94
2023-10-19T14:18:02.365Z,94326.72
2023-10-19T14:20:33.966Z,94326.88
2023-10-19T14:23:01.325Z,94322.41
2023-10-19T14:25:28.130Z,94320.44
2023-10-19T14:28:00.169Z,94327.16
2023-10-19T14:30:29.746Z,94333.69
2023-10-19T14:32:56.834Z,94330.00
2023-10-19T14:35:26.213Z,94325.47
2023-10-19T14:37:57.822Z,94320.06
2023-10-19T14:40:25.858Z,94319.09
2023-10-19T14:42:55.351Z,94308.50
2023-10-19T14:45:27.073Z,94324.22
2023-10-19T14:48:00.684Z,94314.53
2023-10-19T14:50:30.013Z,94305.72
2023-10-19T14:52:56.999Z,94308.84
2023-10-19T14:55:23.994Z,94315.63
2023-10-19T14:57:56.328Z,94327.13
2023-10-19T15:00:27.765Z,94322.78
2023-10-19T15:02:56.498Z,94326.50
2023-10-19T15:07:53.791Z,94337.69
2023-10-19T15:10:22.277Z,94344.94
2023-10-19T15:12:49.619Z,94343.56
2023-10-19T15:15:17.575Z,94349.63
2023-10-19T15:17:45.593Z,94341.16
2023-10-19T15:20:15.784Z,94341.88
2023-10-19T15:22:43.678Z,94354.16
2023-10-19T15:25:11.840Z,94349.56
2023-10-19T15:27:39.381Z,94338.94
2023-10-19T15:30:07.897Z,94337.97
2023-10-19T15:32:34.595Z,94325.72
2023-10-19T15:35:01.248Z,94328.81
2023-10-19T15:37:27.887Z,94321.16
2023-10-19T15:39:54.570Z,94286.81
2023-10-19T15:42:22.880Z,94267.75
2023-10-19T15:44:50.140Z,94255.22
2023-10-19T15:47:19.354Z,94240.28
2023-10-19T15:49:59.659Z,94239.97
2023-10-19T15:52:29.383Z,94218.69
2023-10-19T15:54:55.991Z,94230.94
2023-10-19T15:57:22.581Z,94224.19
2023-10-19T15:59:49.191Z,94240.72
2023-10-19T16:02:16.464Z,94248.59
2023-10-19T16:04:45.008Z,94263.84
2023-10-19T16:07:13.303Z,94260.75
2023-10-19T16:09:40.781Z,94253.59
2023-10-19T16:12:10.683Z,94262.66
2023-10-19T16:14:45.028Z,94249.78
2023-10-19T16:17:14.830Z,94253.22
2023-10-19T16:19:41.813Z,94251.81
2023-10-19T16:22:08.526Z,94245.84
2023-10-19T16:24:35.408Z,94253.56
2023-10-19T16:27:03.304Z,94248.03
2023-10-19T16:29:30.203Z,94243.22
2023-10-19T16:31:59.243Z,94236.63
2023-10-19T16:34:26.258Z,94246.38
2023-10-19T16:36:52.859Z,94243.50
2023-10-19T16:39:19.365Z,94244.91
2023-10-19T16:41:47.317Z,94234.28
2023-10-19T16:44:13.986Z,94220.06
2023-10-19T16:46:40.844Z,94230.75
2023-10-19T16:49:07.477Z,94242.28
2023-10-19T16:51:41.702Z,94239.75
2023-10-19T16:54:09.484Z,94254.03
2023-10-19T16:56:37.867Z,94251.69
2023-10-19T16:59:07.582Z,94260.81
2023-10-19T17:01:35.024Z,94252.50
2023-10-19T17:04:02.658Z,94254.84
2023-10-19T17:06:29.565Z,94229.22
2023-10-19T17:09:01.423Z,94232.59
2023-10-19T17:11:29.222Z,94237.50
2023-10-19T17:13:58.463Z,94225.56
2023-10-19T17:16:25.723Z,94224.75
2023-10-19T17:18:52.744Z,94222.84
2023-10-19T17:21:19.710Z,94223.72
2023-10-19T17:23:46.989Z,94235.84
2023-10-19T17:26:14.159Z,94249.56
2023-10-19T17:28:40.793Z,94257.66
2023-10-19T17:31:08.143Z,94250.47
2023-10-19T17:33:35.404Z,94238.19
2023-10-19T17:36:02.533Z,94245.66
2023-10-19T17:38:29.621Z,94256.44
2023-10-19T17:40:56.672Z,94257.91
2023-10-19T17:43:23.898Z,94267.34
2023-10-19T17:45:51.157Z,94263.22
2023-10-19T17:48:18.821Z,94260.97
2023-10-19T17:50:45.664Z,94267.44
2023-10-19T17:53:13.416Z,94266.34
2023-10-19T17:55:40.006Z,94268.69
2023-10-19T17:58:07.902Z,94250.63
2023-10-19T18:00:38.908Z,94247.22
2023-10-19T18:03:10.989Z,94246.81
2023-10-19T18:05:46.723Z,94227.00
2023-10-19T18:08:14.189Z,94235.22
2023-10-19T18:10:42.104Z,94230.03
2023-10-19T18:13:09.044Z,94218.13
2023-10-19T18:15:40.197Z,94206.38
2023-10-19T18:18:07.822Z,94196.28
2023-10-19T18:20:34.660Z,94185.00
2023-10-19T18:23:01.250Z,94186.66
2023-10-19T18:25:31.549Z,94181.03
2023-10-19T18:27:58.713Z,94187.06
2023-10-19T18:30:25.692Z,94177.78
2023-10-19T18:32:52.252Z,94169.25
2023-10-19T18:35:19.121Z,94161.91
2023-10-19T18:37:45.721Z,94169.03
2023-10-19T18:40:14.576Z,94171.00
2023-10-19T18:42:41.311Z,94167.69
2023-10-19T18:45:08.144Z,94155.88
2023-10-19T18:47:35.301Z,94165.31
2023-10-19T18:50:19.134Z,94174.75
2023-10-19T18:52:52.251Z,94183.75
2023-10-19T18:55:23.827Z,94186.13
2023-10-19T18:57:51.114Z,94181.03
2023-10-19T19:00:25.100Z,94175.47
2023-10-19T19:02:53.154Z,94182.19
2023-10-19T19:05:20.218Z,94170.97
2023-10-19T19:07:47.194Z,94168.75
2023-10-19T19:10:13.903Z,94171.44
2023-10-19T19:12:40.412Z,94167.44
2023-10-19T19:15:07.901Z,94168.25
2023-10-19T19:17:34.650Z,94166.75
2023-10-19T19:20:03.369Z,94174.97
2023-10-19T19:22:32.451Z,94147.56
2023-10-19T19:24:59.304Z,94131.38
2023-10-19T19:27:26.002Z,94145.59
2023-10-19T19:29:52.574Z,94147.97
2023-10-19T19:32:19.138Z,94149.53
2023-10-19T19:34:47.327Z,94144.59
2023-10-19T19:37:14.682Z,94131.84
2023-10-19T19:39:45.606Z,94142.34
2023-10-19T19:42:12.793Z,94146.31
2023-10-19T19:44:40.441Z,94135.56
2023-10-19T19:47:07.668Z,94118.88
2023-10-19T19:49:34.895Z,94113.47
2023-10-19T19:52:02.812Z,94105.94
2023-10-19T19:54:29.419Z,94106.28
2023-10-19T19:56:56.071Z,94094.75
2023-10-19T19:59:22.741Z,94102.66
2023-10-19T20:01:50.022Z,94087.41
2023-10-19T20:04:16.856Z,94100.91
2023-10-19T20:06:43.485Z,94100.25
2023-10-19T20:09:12.313Z,94087.06
2023-10-19T20:11:40.609Z,94080.97
2023-10-19T20:14:07.985Z,94075.41
2023-10-19T20:16:34.888Z,94097.28
2023-10-19T20:19:02.042Z,94084.81
2023-10-19T20:21:29.988Z,94090.16
2023-10-19T20:23:57.770Z,94053.78
2023-10-19T20:26:24.653Z,94073.94
2023-10-19T20:28:51.470Z,94065.66
2023-10-19T20:31:18.107Z,94063.41
2023-10-19T20:33:44.754Z,94064.09
2023-10-19T20:36:11.323Z,94055.53
2023-10-19T20:38:37.894Z,94053.59
2023-10-19T20:41:04.514Z,94045.72
2023-10-19T20:43:31.151Z,94044.38
2023-10-19T20:45:57.681Z,94045.53
2023-10-19T20:48:24.276Z,94044.38
2023-10-19T20:50:50.808Z,94036.50
2023-10-19T20:53:18.147Z,94043.22
2023-10-19T20:55:45.978Z,94030.34
2023-10-19T20:58:13.621Z,94038.91
2023-10-19T21:00:40.384Z,94037.81
2023-10-19T21:03:07.123Z,94043.03
2023-10-19T21:05:35.262Z,94044.47
2023-10-19T21:08:02.027Z,94043.44
2023-10-19T21:10:28.589Z,94034.84
2023-10-19T21:12:55.724Z,94052.16
2023-10-19T21:15:22.339Z,94030.06
2023-10-19T21:17:51.088Z,94038.97
2023-10-19T21:20:19.765Z,94020.66
2023-10-19T21:22:49.686Z,94018.44
2023-10-19T21:25:18.973Z,94008.94
2023-10-19T21:27:48.019Z,94009.22
2023-10-19T21:30:14.874Z,94012.69
2023-10-19T21:32:43.139Z,94006.84
2023-10-19T21:35:10.757Z,94003.81
2023-10-19T21:37:37.641Z,94001.22
2023-10-19T21:40:05.783Z,93999.25
2023-10-19T21:42:32.541Z,93991.13
2023-10-19T21:44:59.111Z,93991.94
2023-10-19T21:47:27.162Z,93990.09
2023-10-19T21:49:54.610Z,93998.25
2023-10-19T21:52:27.362Z,93994.78
2023-10-19T21:54:57.132Z,93983.19
2023-10-19T21:57:23.806Z,93973.78
2023-10-19T21:59:50.326Z,93963.25
2023-10-19T22:02:19.673Z,93969.91
2023-10-19T22:04:46.646Z,93962.56
2023-10-19T22:07:15.155Z,93953.91
2023-10-19T22:09:42.261Z,93952.91
2023-10-19T22:12:10.908Z,93923.38
2023-10-19T22:14:37.755Z,93931.09
2023-10-19T22:17:06.511Z,93925.13
2023-10-19T22:19:33.560Z,93919.03
2023-10-19T22:22:00.321Z,93920.31
2023-10-19T22:24:26.936Z,93910.66
2023-10-19T22:26:53.581Z,93904.53
2023-10-19T22:29:20.484Z,93901.25
2023-10-19T22:31:47.476Z,93904.38
2023-10-19T22:34:15.025Z,93908.47
2023-10-19T22:36:45.693Z,93912.81
2023-10-19T22:39:12.308Z,93913.16
2023-10-19T22:41:38.885Z,93906.38
2023-10-19T22:44:08.329Z,93894.66
2023-10-19T22:46:36.006Z,93878.97
2023-10-19T22:49:02.836Z,93885.31
2023-10-19T22:51:29.372Z,93882.78
2023-10-19T22:53:55.852Z,93882.63
2023-10-19T22:56:24.954Z,93878.69
2023-10-19T22:58:52.696Z,93885.03
2023-10-19T23:01:19.872Z,93884.50
2023-10-19T23:03:46.889Z,93875.59
2023-10-19T23:06:14.146Z,93860.97
2023-10-19T23:08:44.272Z,93861.28
2023-10-19T23:11:14.550Z,93870.16
2023-10-19T23:13:45.098Z,93868.34
2023-10-19T23:16:15.328Z,93868.00
2023-10-19T23:18:42.745Z,93853.25
2023-10-19T23:21:09.653Z,93854.00
2023-10-19T23:23:36.569Z,93842.81
2023-10-19T23:26:05.149Z,93836.88
2023-10-19T23:28:34.635Z,93818.91
2023-10-19T23:31:11.368Z,93818.91
2023-10-19T23:33:38.925Z,93820.38
2023-10-19T23:36:06.676Z,93809.63
2023-10-19T23:38:34.580Z,93800.97
2023-10-19T23:41:01.616Z,93809.41
2023-10-19T23:43:28.745Z,93796.69
2023-10-19T23:45:55.926Z,93797.16
2023-10-19T23:48:22.560Z,93779.16
2023-10-19T23:50:49.931Z,93802.97
2023-10-19T23:53:17.669Z,93797.38
2023-10-19T23:55:47.248Z,93784.28
2023-10-19T23:58:15.074Z,93798.91
